Reklama

Seznam meteostanic a jejich METAR

Vyhledat místa podle abecedy:
A B C D E F G H I J K L M N O P Q R S T U V W X Y Z

Filtrovat:

ID stanice:
a/nebo
Název místa (fulltext):
 
Místo (ID)Naposledy načteno 
Brno - Tuřany (Brno/Tu) 23.10.2019 20:00 UTC Zobrazit data
Místo: Brno - Tuřany
Teplota: 15 °C (pocitová: 12.2 °C)
Vítr: 4 m/s z(e) 60°
Počasí: zataženo
Dohlednost: 8 km
Zákl. oblačnosti: 5/8 6900 m
Vlhkost: 72%
Červená - Opava (Cervena/uL) 23.10.2019 20:00 UTC Zobrazit data
Místo: Červená - Opava
Teplota: 15 °C (pocitová: 11.2 °C)
Vítr: 7 m/s z(e) 180°
Počasí: skorojasno
Dohlednost: 30 km
Zákl. oblačnosti: 2/8 7800 m
Vlhkost: 68%
České Budějovice (C.Budej/po) 23.10.2019 20:00 UTC Zobrazit data
Místo: České Budějovice
Teplota: 9 °C (pocitová: 6.8 °C)
Vítr: 1 m/s z(e) 170°
Počasí: zataženo
Dohlednost: 3200 m
Zákl. oblačnosti: N/A
Vlhkost: 100%
Cheb (Cheb) 23.10.2019 20:00 UTC Zobrazit data
Místo: Cheb
Teplota: 11 °C (pocitová: 8.2 °C)
Vítr: 2 m/s z(e) 70°
Počasí: zataženo
Dohlednost: 6 km
Zákl. oblačnosti: N/A
Vlhkost: 94%
Chotusice - Čáslav (Caslav) 23.10.2019 19:00 UTC Zobrazit data
Místo: Chotusice - Čáslav
Teplota: 12 °C (pocitová: 9.5 °C)
Vítr: 2 m/s z(e) 120°
Počasí: mlha
Dohlednost: 300 m
Zákl. oblačnosti: 8/8 270 m
Vlhkost: 94%
Churáňov (Churanov) 23.10.2019 20:00 UTC Zobrazit data
Místo: Churáňov
Teplota: 11 °C (pocitová: 8.2 °C)
Vítr: 2 m/s z(e) 190°
Počasí: skoro zataženo
Dohlednost: 45 km
Zákl. oblačnosti: 5/8 9000 m
Vlhkost: 47%
Doksany - Litoměřice (Doksany) 23.10.2019 20:00 UTC Zobrazit data
Místo: Doksany - Litoměřice
Teplota: 10 °C (pocitová: 8 °C)
Vítr: 1 m/s z(e) 110°
Počasí: zataženo
Dohlednost: 2200 m
Zákl. oblačnosti: N/A
Vlhkost: 100%
Dukovany (Dukovany) 23.10.2019 20:00 UTC Zobrazit data
Místo: Dukovany
Teplota: 15 °C (pocitová: 12.2 °C)
Vítr: 4 m/s z(e) 80°
Počasí: oblačno
Dohlednost: 11 km
Zákl. oblačnosti: 3/8 9000 m
Vlhkost: 72%
Holešov (Holesov) 23.10.2019 20:00 UTC Zobrazit data
Místo: Holešov
Teplota: 17 °C (pocitová: 14.6 °C)
Vítr: 5 m/s z(e) 130°
Počasí: skorojasno
Dohlednost: 20 km
Zákl. oblačnosti: 1/8 7200 m
Vlhkost: 68%
Kadaň - Tušimice (Tusimice) 23.10.2019 20:00 UTC Zobrazit data
Místo: Kadaň - Tušimice
Teplota: 14 °C (pocitová: 12.9 °C)
Vítr: 1 m/s z(e) 0°
Počasí: zataženo
Dohlednost: 7 km
Zákl. oblačnosti: 8/8 600 m
Vlhkost: 94%
Karlovy Vary (K.Vary) 23.10.2019 20:00 UTC Zobrazit data
Místo: Karlovy Vary
Teplota: 12 °C (pocitová: 8.7 °C)
Vítr: 3 m/s z(e) 100°
Počasí: zataženo
Dohlednost: 7 km
Zákl. oblačnosti: 8/8 300 m
Vlhkost: 94%
Kocelovice (Kocelovice) 23.10.2019 20:00 UTC Zobrazit data
Místo: Kocelovice
Teplota: 11 °C (pocitová: 8.2 °C)
Vítr: 2 m/s z(e) 80°
Počasí: mlha
Dohlednost: 800 m
Zákl. oblačnosti: 4/8 9300 m
Vlhkost: 100%
Kopisty (Kopisty) 23.10.2019 18:00 UTC Zobrazit data
Místo: Kopisty
Teplota: 15 °C (pocitová: 22.4 °C)
Vítr: 0 m/s z(e) 0°
Počasí: zataženo
Dohlednost: 13 km
Zákl. oblačnosti: 8/8 630 m
Vlhkost: 88%
Kostelní Myslová (K.Myslova) 23.10.2019 20:00 UTC Zobrazit data
Místo: Kostelní Myslová
Teplota: 13 °C (pocitová: 10 °C)
Vítr: 3 m/s z(e) 60°
Počasí: zataženo
Dohlednost: 8 km
Zákl. oblačnosti: 1/8 480 m
Vlhkost: 88%
Křešín - Kramolín (Kramolin) 23.10.2019 20:00 UTC Zobrazit data
Místo: Křešín - Kramolín
Teplota: 9 °C (pocitová: 6.8 °C)
Vítr: 1 m/s z(e) 0°
Počasí: mlha
Dohlednost: 200 m
Zákl. oblačnosti: 4/8 9000 m
Vlhkost: 100%
Kuchařovice - Znojmo (Kucharovic) 23.10.2019 20:00 UTC Zobrazit data
Místo: Kuchařovice - Znojmo
Teplota: 16 °C (pocitová: 14.6 °C)
Vítr: 2 m/s z(e) 0°
Počasí: skorojasno
Dohlednost: 13 km
Zákl. oblačnosti: 2/8 9300 m
Vlhkost: 72%
Liberec (Liberec) 23.10.2019 20:00 UTC Zobrazit data
Místo: Liberec
Teplota: 14 °C (pocitová: 12.1 °C)
Vítr: 2 m/s z(e) 150°
Počasí: skoro zataženo
Dohlednost: 10 km
Zákl. oblačnosti: 5/8 750 m
Vlhkost: 88%
Luká (Luka) 23.10.2019 20:00 UTC Zobrazit data
Místo: Luká
Teplota: 14 °C (pocitová: 10.4 °C)
Vítr: 5 m/s z(e) 130°
Počasí: zataženo
Dohlednost: 7 km
Zákl. oblačnosti: 1/8 9000 m
Vlhkost: 82%
Lysá Hora (Lysa Hora) 23.10.2019 20:00 UTC Zobrazit data
Místo: Lysá Hora
Teplota: 11 °C (pocitová: 4.5 °C)
Vítr: 11 m/s z(e) 170°
Počasí: skorojasno
Dohlednost: 40 km
Zákl. oblačnosti: 1/8 6000 m
Vlhkost: 77%
Milešovka (Milesovka) 23.10.2019 13:00 UTC Zobrazit data
Místo: Milešovka
Teplota: 13 °C (pocitová: 8.3 °C)
Vítr: 7 m/s z(e) 130°
Počasí: zataženo
Dohlednost: 1000 m
Zákl. oblačnosti: 8/8 180 m
Vlhkost: 94%
Mošnov (Ostrava/Mo) 23.10.2019 15:00 UTC Zobrazit data
Místo: Mošnov
Teplota: 13 °C (pocitová: 11.7 °C)
Vítr: 1 m/s z(e) 0°
Počasí: mlha
Dohlednost: 600 m
Zákl. oblačnosti: 3/8 60 m;8/8 120 m
Vlhkost: 100%
Náměšť nad Oslavou (Namest n/O) 23.10.2019 20:00 UTC Zobrazit data
Místo: Náměšť nad Oslavou
Teplota: 16 °C (pocitová: 14 °C)
Vítr: 3 m/s z(e) 90°
Počasí: skorojasno
Dohlednost: 12 km
Zákl. oblačnosti: 1/8 6600 m
Vlhkost: 68%
Pardubice (Pardubice) 23.10.2019 19:00 UTC Zobrazit data
Místo: Pardubice
Teplota: 11 °C (pocitová: 9.2 °C)
Vítr: 1 m/s z(e) 210°
Počasí: skoro zataženo
Dohlednost: 1800 m
Zákl. oblačnosti: 6/8 8100 m
Vlhkost: 94%
Pec pod Sněžkou (Pec p.Snez) 23.10.2019 20:00 UTC Zobrazit data
Místo: Pec pod Sněžkou
Teplota: 9 °C (pocitová: 6.8 °C)
Vítr: 1 m/s z(e) 210°
Počasí: zataženo
Dohlednost: 3000 m
Zákl. oblačnosti: N/A
Vlhkost: 100%
Plzeň město - Mikulka (Plzen/Miku) 23.10.2019 20:00 UTC Zobrazit data
Místo: Plzeň město - Mikulka
Teplota: 13 °C (pocitová: 10.8 °C)
Vítr: 2 m/s z(e) 360°
Počasí: skorojasno
Dohlednost: 10 km
Zákl. oblačnosti: 2/8 600 m
Vlhkost: 94%
Polom (Polom) 23.10.2019 20:00 UTC Zobrazit data
Místo: Polom
Teplota: 15 °C (pocitová: 11.8 °C)
Vítr: 5 m/s z(e) 170°
Počasí: zataženo
Dohlednost: 6 km
Zákl. oblačnosti: N/A
Vlhkost: 72%
Praha - Karlov (Praha/Kar) 23.10.2019 20:00 UTC Zobrazit data
Místo: Praha - Karlov
Teplota: 13 °C (pocitová: 11.7 °C)
Vítr: 1 m/s z(e) 310°
Počasí: zataženo
Dohlednost: 5 km
Zákl. oblačnosti: 6/8 660 m
Vlhkost: 94%
Praha - Kbely (Praha/Kbe) 23.10.2019 20:00 UTC Zobrazit data
Místo: Praha - Kbely
Teplota: 10 °C (pocitová: 19.3 °C)
Vítr: 0 m/s z(e) 0°
Počasí: mlha
Dohlednost: 900 m
Zákl. oblačnosti: 4/8 690 m
Vlhkost: 94%
Praha - Libuš (Praha/Lib) 23.10.2019 20:00 UTC Zobrazit data
Místo: Praha - Libuš
Teplota: 11 °C (pocitová: 9.2 °C)
Vítr: 1 m/s z(e) 0°
Počasí: zataženo
Dohlednost: 1200 m
Zákl. oblačnosti: N/A
Vlhkost: 100%
Praha - Ruzyně (Praha/Ru) 23.10.2019 20:00 UTC Zobrazit data
Místo: Praha - Ruzyně
Teplota: 9 °C (pocitová: 5.6 °C)
Vítr: 2 m/s z(e) 300°
Počasí: skoro zataženo
Dohlednost: 300 m
Zákl. oblačnosti: 5/8 600 m
Vlhkost: 100%
Přibyslav (Pribyslav) 23.10.2019 20:00 UTC Zobrazit data
Místo: Přibyslav
Teplota: 13 °C (pocitová: 9 °C)
Vítr: 5 m/s z(e) 120°
Počasí: zataženo
Dohlednost: 6 km
Zákl. oblačnosti: N/A
Vlhkost: 82%
Přimda (Primda) 23.10.2019 20:00 UTC Zobrazit data
Místo: Přimda
Teplota: 10 °C (pocitová: 4.8 °C)
Vítr: 5 m/s z(e) 100°
Počasí: zataženo
Dohlednost: 3000 m
Zákl. oblačnosti: 8/8 120 m
Vlhkost: 100%
Šerák (Serak) 23.10.2019 20:00 UTC Zobrazit data
Místo: Šerák
Teplota: 12 °C (pocitová: 6.6 °C)
Vítr: 8 m/s z(e) 210°
Počasí: skorojasno
Dohlednost: 25 km
Zákl. oblačnosti: 1/8 8700 m
Vlhkost: 67%
Svratouch (Svratouch) 23.10.2019 20:00 UTC Zobrazit data
Místo: Svratouch
Teplota: 14 °C (pocitová: 9 °C)
Vítr: 11 m/s z(e) 170°
Počasí: zataženo
Dohlednost: 9 km
Zákl. oblačnosti: 5/8 6900 m
Vlhkost: 77%
Temelín (Temelin) 23.10.2019 20:00 UTC Zobrazit data
Místo: Temelín
Teplota: 12 °C (pocitová: 9.5 °C)
Vítr: 2 m/s z(e) 80°
Počasí: zataženo
Dohlednost: 3000 m
Zákl. oblačnosti: 6/8 360 m
Vlhkost: 100%
Ústí nad Labem - Kočkov (Usti n/L) 23.10.2019 20:00 UTC Zobrazit data
Místo: Ústí nad Labem - Kočkov
Teplota: 14 °C (pocitová: 12.1 °C)
Vítr: 2 m/s z(e) 210°
Počasí: zataženo
Dohlednost: 14 km
Zákl. oblačnosti: 8/8 480 m
Vlhkost: 88%
Ústí nad Orlicí (Usti n/O) 23.10.2019 20:00 UTC Zobrazit data
Místo: Ústí nad Orlicí
Teplota: 14 °C (pocitová: 12.9 °C)
Vítr: 1 m/s z(e) 0°
Počasí: zataženo
Dohlednost: 5 km
Zákl. oblačnosti: N/A
Vlhkost: 82%
Aalborg (EKYT) 23.10.2019 19:50 UTC Zobrazit METAR
EKYT 231950Z AUTO 18006KT 9999 SCT130/// BKN170/// 09/08 Q1014
Aarhus (EKAH) 18.10.2019 17:50 UTC Zobrazit METAR
EKAH 181750Z 15008KT 110V200 9999 DZ FEW007 BKN019 OVC054 13/12 Q0999
Abu Dhabi (OMAA) 23.10.2019 20:00 UTC Zobrazit METAR
OMAA 232000Z 36005KT 300V010 7000 NSC 29/24 Q1010 NOSIG
Abuja (DNAA) 23.10.2019 13:00 UTC Zobrazit METAR
DNAA 231300Z 24008KT 200V280 9999 BKN014 33/21 Q1010 NOSIG
Accra (DGAA) 23.10.2019 20:00 UTC Zobrazit METAR
DGAA 232000Z 22012KT 9999 SCT014 27/25 Q1010 NOSIG
Addis Abeba (HAAB) 22.10.2019 00:00 UTC Zobrazit METAR
HAAB 220000Z 05006KT 9999 FEW025 12/08 Q1024
Agana (PGUM) 23.10.2019 19:54 UTC Zobrazit METAR
PGUM 231954Z 05007KT 10SM CLR 26/24 A2986 RMK AO2 SLP103 T02610239
Ahe Island (NTHE) Zatím nenačteno  
Akureyri (BIAR) 23.10.2019 20:00 UTC Zobrazit METAR
BIAR 232000Z 35010KT 320V020 8000 -SN FEW009 SCT020 SCT050 M04/M06 Q1017
Almaty (UAAA) Zatím nenačteno  
Amman (OJAM) 23.10.2019 20:00 UTC Zobrazit METAR
OJAM 232000Z 00000KT 5000 HZ FEW035 17/14 Q1014 NOSIG
Amsterdam (EHAM) 23.10.2019 19:55 UTC Zobrazit METAR
EHAM 231955Z 07004KT 030V090 7000 NSC 12/11 Q1009 BECMG 5000
Antananarivo (FMMI) 23.10.2019 20:00 UTC Zobrazit METAR
FMMI 232000Z 14007KT 9999 FEW020 18/16 Q1023 NOSIG
1 2 3 ... 9 Další
Reklama

Počasí na Váš email

Emaily jsou bez reklamy a bez spamu



Odhlásit newsletter

Reklama


Lunární kalendář

  • 28.10.
  • 04.11.
  • 12.11.
  • 19.11.



Reklama


Reklama
Povinné ručení
Reklama



Reklama